createdAt,value
2019-03-13T00:01:04.224Z,74.89
2019-03-13T00:03:52.140Z,73.93
2019-03-13T00:06:40.596Z,74.59
2019-03-13T00:09:30.063Z,76.54
2019-03-13T00:12:17.668Z,75.86
2019-03-13T00:15:05.888Z,74.86
2019-03-13T00:17:54.003Z,74.68
2019-03-13T00:20:42.437Z,75.96
2019-03-13T00:23:30.666Z,73.74
2019-03-13T00:26:18.724Z,71.96
2019-03-13T00:29:07.148Z,73.07
2019-03-13T00:31:55.590Z,73.52
2019-03-13T00:34:44.366Z,75.68
2019-03-13T00:37:32.484Z,78.49
2019-03-13T00:40:20.862Z,73.92
2019-03-13T00:43:08.940Z,74.07
2019-03-13T00:45:57.515Z,75.29
2019-03-13T00:48:45.142Z,77.14
2019-03-13T00:51:36.731Z,75.63
2019-03-13T00:54:22.803Z,76.46
2019-03-13T00:57:10.939Z,75.42
2019-03-13T00:59:59.108Z,74.66
2019-03-13T01:02:47.237Z,76.04
2019-03-13T01:05:43.001Z,74.49
2019-03-13T01:08:31.491Z,73.69
2019-03-13T01:11:20.922Z,73.56
2019-03-13T01:14:08.915Z,72.90
2019-03-13T01:16:56.732Z,73.00
2019-03-13T01:19:44.480Z,73.39
2019-03-13T01:22:32.836Z,72.93
2019-03-13T01:25:20.318Z,73.33
2019-03-13T01:28:09.047Z,75.31
2019-03-13T01:31:05.744Z,74.75
2019-03-13T01:33:55.232Z,74.00
2019-03-13T01:36:43.285Z,73.76
2019-03-13T01:39:31.601Z,75.89
2019-03-13T01:42:19.358Z,75.26
2019-03-13T01:45:07.745Z,75.47
2019-03-13T01:47:56.315Z,74.37
2019-03-13T01:50:44.688Z,75.03
2019-03-13T01:53:32.409Z,73.54
2019-03-13T01:56:20.828Z,72.60
2019-03-13T01:59:08.816Z,73.04
2019-03-13T02:01:57.043Z,73.09
2019-03-13T02:04:45.426Z,74.70
2019-03-13T02:07:33.823Z,74.13
2019-03-13T02:10:22.189Z,74.98
2019-03-13T02:13:11.455Z,74.73
2019-03-13T02:15:59.576Z,73.57
2019-03-13T02:18:47.623Z,73.76
2019-03-13T02:21:35.985Z,71.97
2019-03-13T02:24:24.406Z,72.41
2019-03-13T02:27:12.530Z,72.27
2019-03-13T02:30:00.969Z,71.06
2019-03-13T02:32:48.876Z,71.22
2019-03-13T02:35:37.255Z,71.10
2019-03-13T02:38:25.833Z,71.13
2019-03-13T02:41:13.883Z,70.90
2019-03-13T02:44:02.285Z,71.01
2019-03-13T02:46:50.178Z,71.08
2019-03-13T02:49:38.168Z,71.81
2019-03-13T02:52:26.123Z,70.90
2019-03-13T02:55:14.581Z,71.36
2019-03-13T02:58:02.305Z,71.31
2019-03-13T03:01:21.398Z,70.59
2019-03-13T03:04:10.716Z,69.83
2019-03-13T03:06:58.454Z,70.24
2019-03-13T03:09:46.331Z,70.13
2019-03-13T03:12:34.352Z,70.75
2019-03-13T03:15:23.896Z,70.62
2019-03-13T03:18:12.467Z,70.49
2019-03-13T03:20:59.979Z,71.22
2019-03-13T03:23:48.442Z,69.40
2019-03-13T03:26:36.755Z,70.29
2019-03-13T03:29:25.198Z,70.92
2019-03-13T03:32:13.676Z,71.55
2019-03-13T03:35:01.947Z,71.52
2019-03-13T03:37:49.556Z,72.28
2019-03-13T03:40:37.971Z,72.01
2019-03-13T03:43:39.478Z,72.42
2019-03-13T03:46:15.630Z,73.42
2019-03-13T03:49:04.057Z,72.29
2019-03-13T03:51:51.924Z,69.23
2019-03-13T03:54:40.299Z,69.73
2019-03-13T03:57:28.659Z,72.04
2019-03-13T04:00:17.743Z,73.67
2019-03-13T04:03:06.248Z,72.94
2019-03-13T04:05:54.664Z,73.31
2019-03-13T04:08:43.055Z,74.16
2019-03-13T04:11:30.697Z,73.33
2019-03-13T04:14:18.420Z,71.66
2019-03-13T04:17:13.079Z,72.86
2019-03-13T04:20:01.329Z,71.28
2019-03-13T04:22:49.484Z,70.61
2019-03-13T04:25:37.553Z,70.56
2019-03-13T04:28:25.473Z,69.57
2019-03-13T04:31:13.104Z,71.05
2019-03-13T04:34:01.101Z,69.88
2019-03-13T04:36:49.213Z,70.07
2019-03-13T04:39:37.112Z,70.56
2019-03-13T04:42:25.227Z,71.28
2019-03-13T04:45:13.343Z,70.06
2019-03-13T04:48:01.339Z,72.92
2019-03-13T04:50:49.720Z,75.54
2019-03-13T04:53:38.225Z,76.94
2019-03-13T04:56:26.089Z,78.29
2019-03-13T04:59:14.083Z,79.22
2019-03-13T05:02:02.269Z,78.17
2019-03-13T05:04:50.722Z,78.73
2019-03-13T05:07:39.295Z,78.33
2019-03-13T05:10:27.952Z,75.00
2019-03-13T05:13:16.088Z,74.92
2019-03-13T05:16:05.264Z,73.76
2019-03-13T05:18:53.603Z,72.54
2019-03-13T05:21:42.963Z,71.38
2019-03-13T05:24:34.893Z,70.84
2019-03-13T05:27:22.703Z,69.59
2019-03-13T05:30:10.848Z,68.41
2019-03-13T05:32:59.068Z,68.93
2019-03-13T05:35:47.039Z,69.71
2019-03-13T05:38:35.364Z,70.05
2019-03-13T05:41:23.064Z,69.75
2019-03-13T05:44:11.516Z,69.72
2019-03-13T05:47:03.399Z,70.50
2019-03-13T05:49:51.852Z,67.24
2019-03-13T05:52:39.590Z,67.55
2019-03-13T05:55:27.955Z,68.31
2019-03-13T05:58:16.316Z,67.50
2019-03-13T06:01:05.432Z,68.13
2019-03-13T06:03:59.711Z,67.92
2019-03-13T06:06:48.166Z,68.17
2019-03-13T06:09:36.607Z,67.74
2019-03-13T06:12:25.012Z,68.40
2019-03-13T06:15:13.044Z,68.23
2019-03-13T06:18:01.194Z,68.59
2019-03-13T06:20:49.496Z,68.03
2019-03-13T06:23:37.595Z,66.70
2019-03-13T06:26:25.787Z,68.07
2019-03-13T06:29:14.125Z,66.86
2019-03-13T06:32:02.315Z,66.56
2019-03-13T06:34:50.824Z,66.78
2019-03-13T06:37:38.951Z,65.29
2019-03-13T06:40:27.351Z,64.57
2019-03-13T06:43:15.415Z,64.92
2019-03-13T06:46:03.272Z,64.05
2019-03-13T06:48:51.339Z,64.99
2019-03-13T06:51:39.792Z,64.07
2019-03-13T06:54:27.284Z,63.70
2019-03-13T06:57:15.571Z,64.04
2019-03-13T07:00:22.681Z,63.86
2019-03-13T07:03:27.947Z,63.14
2019-03-13T07:06:28.507Z,62.48
2019-03-13T07:09:21.602Z,61.88
2019-03-13T07:12:28.874Z,61.61
2019-03-13T07:15:38.741Z,61.05
2019-03-13T07:18:45.488Z,60.83
2019-03-13T07:22:10.511Z,60.43
2019-03-13T07:25:32.914Z,59.18
2019-03-13T07:29:07.440Z,59.52
2019-03-13T07:32:01.976Z,59.31
2019-03-13T07:35:09.473Z,59.89
2019-03-13T07:38:28.151Z,60.90
2019-03-13T07:41:24.785Z,60.18
2019-03-13T07:44:22.334Z,61.58
2019-03-13T07:47:41.457Z,59.84
2019-03-13T07:50:41.331Z,59.70
2019-03-13T07:53:44.179Z,58.48
2019-03-13T07:56:59.971Z,58.74
2019-03-13T08:00:13.168Z,58.65
2019-03-13T08:03:07.936Z,58.56
2019-03-13T08:06:15.132Z,57.81
2019-03-13T08:09:12.382Z,59.87
2019-03-13T08:12:19.918Z,57.30
2019-03-13T08:15:26.308Z,57.77
2019-03-13T08:18:52.108Z,56.87
2019-03-13T08:22:10.972Z,56.52
2019-03-13T08:25:18.934Z,56.77
2019-03-13T08:28:22.252Z,57.09
2019-03-13T08:31:42.296Z,56.18
2019-03-13T08:34:39.243Z,55.34
2019-03-13T08:37:36.396Z,56.20
2019-03-13T08:40:46.301Z,54.74
2019-03-13T08:43:51.901Z,55.76
2019-03-13T08:46:58.795Z,52.82
2019-03-13T08:50:04.895Z,54.74
2019-03-13T08:53:02.698Z,53.22
2019-03-13T08:56:09.585Z,54.50
2019-03-13T08:59:08.914Z,53.66
2019-03-13T09:02:04.264Z,53.85
2019-03-13T09:05:11.703Z,55.41
2019-03-13T09:08:30.315Z,56.37
2019-03-13T09:11:26.783Z,55.31
2019-03-13T09:14:21.109Z,55.79
2019-03-13T09:17:24.154Z,54.40
2019-03-13T09:20:32.072Z,52.73
2019-03-13T09:23:43.252Z,52.50
2019-03-13T09:26:48.482Z,51.63
2019-03-13T09:29:55.916Z,51.66
2019-03-13T09:33:08.460Z,53.57
2019-03-13T09:36:34.050Z,53.49
2019-03-13T09:39:41.037Z,52.32
2019-03-13T09:42:39.305Z,50.39
2019-03-13T09:45:48.932Z,50.53
2019-03-13T09:48:56.639Z,52.86
2019-03-13T09:52:04.218Z,53.20
2019-03-13T09:55:20.449Z,51.89
2019-03-13T09:58:39.525Z,51.69
2019-03-13T10:01:45.070Z,51.16
2019-03-13T10:04:55.396Z,51.91
2019-03-13T10:07:49.855Z,52.20
2019-03-13T10:11:11.932Z,50.79
2019-03-13T10:14:07.413Z,50.49
2019-03-13T10:17:32.103Z,49.84
2019-03-13T10:20:47.573Z,50.58
2019-03-13T10:24:03.517Z,51.44
2019-03-13T10:27:08.954Z,49.47
2019-03-13T10:30:05.898Z,50.46
2019-03-13T10:33:13.028Z,51.43
2019-03-13T10:36:13.509Z,48.53
2019-03-13T10:39:11.591Z,48.42
2019-03-13T10:42:10.451Z,48.51
2019-03-13T10:45:09.553Z,47.55
2019-03-13T10:48:05.831Z,48.83
2019-03-13T10:51:21.669Z,47.67
2019-03-13T10:54:25.335Z,47.40
2019-03-13T10:57:28.488Z,48.67
2019-03-13T11:00:27.634Z,46.92
2019-03-13T11:03:33.563Z,47.30
2019-03-13T11:06:38.527Z,48.02
2019-03-13T11:09:38.020Z,46.67
2019-03-13T11:12:59.413Z,48.35
2019-03-13T11:16:11.953Z,49.44
2019-03-13T11:19:18.563Z,49.17
2019-03-13T11:22:19.160Z,48.17
2019-03-13T11:25:25.527Z,46.91
2019-03-13T11:28:26.065Z,47.34
2019-03-13T11:31:31.323Z,47.07
2019-03-13T11:34:41.225Z,50.07
2019-03-13T11:37:46.710Z,47.24
2019-03-13T11:40:54.188Z,46.86
2019-03-13T11:44:03.499Z,46.29
2019-03-13T11:47:22.086Z,44.62
2019-03-13T11:50:37.956Z,45.10
2019-03-13T11:53:37.320Z,44.42
2019-03-13T11:56:52.896Z,44.05
2019-03-13T11:59:51.387Z,44.47
2019-03-13T12:02:53.894Z,42.88
2019-03-13T12:05:56.455Z,43.87
2019-03-13T12:09:21.623Z,43.89
2019-03-13T12:12:31.456Z,43.43
2019-03-13T12:15:43.820Z,42.48
2019-03-13T12:18:53.471Z,42.68
2019-03-13T12:25:24.996Z,42.74
2019-03-13T12:28:35.828Z,40.97
2019-03-13T12:31:57.861Z,40.14
2019-03-13T12:35:00.400Z,39.88
2019-03-13T12:37:58.584Z,40.39
2019-03-13T12:41:14.155Z,40.61
2019-03-13T12:44:20.544Z,40.15
2019-03-13T12:47:32.981Z,39.59
2019-03-13T12:50:39.643Z,41.33
2019-03-13T12:53:46.737Z,42.06
2019-03-13T12:57:00.254Z,43.04
2019-03-13T12:59:56.672Z,41.86
2019-03-13T13:03:03.612Z,42.34
2019-03-13T13:06:28.468Z,42.35
2019-03-13T13:09:41.622Z,42.31
2019-03-13T13:12:44.364Z,42.85
2019-03-13T13:15:57.271Z,41.91
2019-03-13T13:18:53.289Z,41.60
2019-03-13T13:21:23.448Z,42.06
2019-03-13T13:23:53.386Z,42.26
2019-03-13T13:26:23.227Z,43.94
2019-03-13T13:28:53.093Z,42.02
2019-03-13T13:31:22.997Z,43.45
2019-03-13T13:33:52.741Z,42.18
2019-03-13T13:36:22.519Z,42.59
2019-03-13T13:38:52.256Z,43.40
2019-03-13T13:41:21.987Z,43.67
2019-03-13T13:43:51.854Z,43.87
2019-03-13T13:46:31.624Z,43.14
2019-03-13T13:49:01.744Z,41.52
2019-03-13T13:51:32.894Z,42.67
2019-03-13T13:54:03.142Z,42.30
2019-03-13T13:56:32.917Z,41.11
2019-03-13T13:59:03.984Z,41.77
2019-03-13T14:01:34.853Z,39.59
2019-03-13T14:04:05.814Z,41.85
2019-03-13T14:06:36.833Z,41.25
2019-03-13T14:09:08.511Z,41.64
2019-03-13T14:11:39.396Z,40.96
2019-03-13T14:14:28.436Z,41.56
2019-03-13T14:16:59.348Z,41.17
2019-03-13T14:19:30.199Z,41.60
2019-03-13T14:22:01.159Z,41.50
2019-03-13T14:24:32.091Z,41.49
2019-03-13T14:27:14.031Z,42.99
2019-03-13T14:29:33.306Z,42.94
2019-03-13T14:32:03.173Z,41.78
2019-03-13T14:34:32.906Z,42.49
2019-03-13T14:37:02.637Z,43.27
2019-03-13T14:39:32.406Z,44.10
2019-03-13T14:42:02.149Z,44.28
2019-03-13T14:44:31.882Z,42.39
2019-03-13T14:47:01.733Z,44.30
2019-03-13T14:49:31.502Z,44.48
2019-03-13T14:52:01.200Z,44.59
2019-03-13T14:54:30.964Z,46.06
2019-03-13T14:57:00.728Z,44.50
2019-03-13T14:59:30.471Z,43.66
2019-03-13T15:02:00.231Z,42.08
2019-03-13T15:04:29.964Z,43.85
2019-03-13T15:06:59.715Z,42.24
2019-03-13T15:09:29.547Z,43.53
2019-03-13T15:11:59.293Z,44.04
2019-03-13T15:14:29.033Z,43.82
2019-03-13T15:16:58.810Z,44.79
2019-03-13T15:19:28.544Z,44.25
2019-03-13T15:21:58.274Z,46.46
2019-03-13T15:24:28.041Z,45.64
2019-03-13T15:26:57.768Z,46.04
2019-03-13T15:29:27.507Z,46.40
2019-03-13T15:31:57.324Z,46.08
2019-03-13T15:34:27.068Z,48.57
2019-03-13T15:36:56.804Z,47.12
2019-03-13T15:39:26.582Z,47.40
2019-03-13T15:41:56.320Z,47.86
2019-03-13T15:44:26.056Z,49.91
2019-03-13T15:46:55.829Z,48.34
2019-03-13T15:49:25.579Z,52.37
2019-03-13T15:51:55.325Z,52.58
2019-03-13T15:54:25.157Z,51.35
2019-03-13T15:56:55.021Z,53.27
2019-03-13T15:59:24.766Z,53.05
2019-03-13T16:01:54.655Z,55.63
2019-03-13T16:04:24.325Z,57.44
2019-03-13T16:06:56.861Z,59.47
2019-03-13T16:09:26.707Z,59.77
2019-03-13T16:11:56.433Z,60.10
2019-03-13T16:14:27.474Z,60.47
2019-03-13T16:16:58.366Z,61.24
2019-03-13T16:19:28.209Z,61.10
2019-03-13T16:21:57.950Z,61.97
2019-03-13T16:24:27.792Z,62.58
2019-03-13T16:26:57.512Z,63.19
2019-03-13T16:29:27.252Z,63.41
2019-03-13T16:31:57.232Z,65.23
2019-03-13T16:34:27.069Z,65.72
2019-03-13T16:36:57.236Z,65.56
2019-03-13T16:39:27.007Z,66.45
2019-03-13T16:41:56.760Z,61.64
2019-03-13T16:44:26.504Z,62.63
2019-03-13T16:46:56.339Z,61.96
2019-03-13T16:49:26.076Z,61.88
2019-03-13T16:51:55.805Z,62.22
2019-03-13T16:54:25.656Z,63.30
2019-03-13T16:56:55.383Z,63.82
2019-03-13T16:59:25.116Z,64.07
2019-03-13T17:01:54.903Z,64.04
2019-03-13T17:04:24.624Z,64.01
2019-03-13T17:06:54.672Z,64.10
2019-03-13T17:09:24.499Z,64.06
2019-03-13T17:11:54.239Z,64.72
2019-03-13T17:14:24.044Z,64.40
2019-03-13T17:16:53.851Z,64.19
2019-03-13T17:19:23.583Z,64.21
2019-03-13T17:21:53.324Z,63.26
2019-03-13T17:24:23.094Z,63.42
2019-03-13T17:26:52.845Z,63.89
2019-03-13T17:29:22.598Z,64.82
2019-03-13T17:31:52.532Z,64.86
2019-03-13T17:34:22.283Z,65.05
2019-03-13T17:36:52.037Z,65.58
2019-03-13T17:39:21.829Z,65.53
2019-03-13T17:41:51.560Z,69.82
2019-03-13T17:44:21.306Z,66.72
2019-03-13T17:46:51.121Z,66.42
2019-03-13T17:49:20.861Z,66.82
2019-03-13T17:51:50.598Z,65.61
2019-03-13T17:54:21.008Z,64.79
2019-03-13T17:56:50.889Z,64.95
2019-03-13T17:59:20.903Z,64.42
2019-03-13T18:01:50.693Z,66.85
2019-03-13T18:04:20.429Z,68.07
2019-03-13T18:06:50.165Z,67.82
2019-03-13T18:09:19.945Z,68.94
2019-03-13T18:11:49.824Z,68.23
2019-03-13T18:14:19.603Z,69.13
2019-03-13T18:16:49.456Z,70.71
2019-03-13T18:19:19.432Z,70.29
2019-03-13T18:21:53.576Z,70.29
2019-03-13T18:24:23.648Z,68.88
2019-03-13T18:26:53.375Z,68.55
2019-03-13T18:29:23.119Z,69.29
2019-03-13T18:31:54.120Z,68.81
2019-03-13T18:34:23.860Z,71.90
2019-03-13T18:36:54.365Z,71.17
2019-03-13T18:39:24.180Z,70.75
2019-03-13T18:41:54.603Z,71.08
2019-03-13T18:44:24.340Z,70.97
2019-03-13T18:46:54.223Z,71.74
2019-03-13T18:49:23.971Z,71.17
2019-03-13T18:51:53.706Z,70.92
2019-03-13T18:54:23.550Z,71.42
2019-03-13T18:56:53.269Z,69.77
2019-03-13T18:59:23.005Z,69.63
2019-03-13T19:01:52.788Z,69.99
2019-03-13T19:04:22.716Z,70.09
2019-03-13T19:06:52.451Z,70.31
2019-03-13T19:09:22.322Z,71.75
2019-03-13T19:11:52.369Z,70.83
2019-03-13T19:14:22.200Z,70.87
2019-03-13T19:16:52.027Z,71.40
2019-03-13T19:19:21.905Z,71.02
2019-03-13T19:21:51.648Z,70.75
2019-03-13T19:24:39.821Z,70.75
2019-03-13T19:27:27.692Z,70.45
2019-03-13T19:30:17.441Z,71.12
2019-03-13T19:33:05.636Z,70.93
2019-03-13T19:35:35.667Z,71.05
2019-03-13T19:38:05.807Z,70.41
2019-03-13T19:40:35.788Z,70.07
2019-03-13T19:43:05.557Z,69.99
2019-03-13T19:45:36.534Z,70.72
2019-03-13T19:48:06.285Z,70.76
2019-03-13T19:50:36.128Z,72.17
2019-03-13T19:53:05.913Z,72.10
2019-03-13T19:55:35.748Z,71.64
2019-03-13T19:58:05.699Z,72.67
2019-03-13T20:00:35.452Z,72.42
2019-03-13T20:03:05.695Z,72.16
2019-03-13T20:05:44.677Z,72.60
2019-03-13T20:08:06.951Z,72.61
2019-03-13T20:10:37.028Z,72.85
2019-03-13T20:13:07.049Z,72.76
2019-03-13T20:15:37.000Z,72.30
2019-03-13T20:18:07.184Z,72.76
2019-03-13T20:20:38.828Z,73.11
2019-03-13T20:23:09.870Z,72.82
2019-03-13T20:25:39.759Z,72.86
2019-03-13T20:28:10.030Z,73.99
2019-03-13T20:30:39.951Z,74.80
2019-03-13T20:33:10.506Z,74.95
2019-03-13T20:35:40.887Z,74.15
2019-03-13T20:38:10.895Z,73.84
2019-03-13T20:40:41.140Z,73.72
2019-03-13T20:43:11.374Z,73.59
2019-03-13T20:45:41.784Z,74.33
2019-03-13T20:48:11.925Z,75.59
2019-03-13T20:50:42.214Z,74.88
2019-03-13T20:53:12.088Z,74.43
2019-03-13T20:55:41.903Z,75.33
2019-03-13T20:58:11.916Z,74.24
2019-03-13T21:00:41.755Z,74.48
2019-03-13T21:03:11.683Z,74.44
2019-03-13T21:05:41.571Z,75.42
2019-03-13T21:08:11.850Z,74.41
2019-03-13T21:10:41.813Z,75.11
2019-03-13T21:13:11.727Z,74.29
2019-03-13T21:15:43.576Z,74.15
2019-03-13T21:18:13.224Z,74.48
2019-03-13T21:20:43.231Z,73.49
2019-03-13T21:23:13.482Z,74.14
2019-03-13T21:25:46.758Z,73.58
2019-03-13T21:28:16.639Z,73.78
2019-03-13T21:30:46.509Z,73.96
2019-03-13T21:33:18.231Z,74.10
2019-03-13T21:35:48.358Z,73.49
2019-03-13T21:38:19.930Z,74.57
2019-03-13T21:40:50.147Z,74.82
2019-03-13T21:43:19.971Z,74.98
2019-03-13T21:45:51.105Z,74.30
2019-03-13T21:48:20.960Z,75.01
2019-03-13T21:50:51.209Z,75.76
2019-03-13T21:53:20.975Z,75.03
2019-03-13T21:55:50.915Z,75.25
2019-03-13T21:58:22.029Z,75.06
2019-03-13T22:00:57.839Z,75.18
2019-03-13T22:03:32.308Z,75.11
2019-03-13T22:05:59.715Z,75.53
2019-03-13T22:08:29.573Z,74.99
2019-03-13T22:10:59.398Z,75.83
2019-03-13T22:13:29.559Z,76.07
2019-03-13T22:15:59.606Z,75.20
2019-03-13T22:18:29.702Z,75.09
2019-03-13T22:20:59.535Z,75.21
2019-03-13T22:23:29.801Z,75.71
2019-03-13T22:25:59.641Z,76.38
2019-03-13T22:28:29.463Z,76.33
2019-03-13T22:31:02.553Z,75.51
2019-03-13T22:33:30.768Z,75.84
2019-03-13T22:36:00.581Z,75.36
2019-03-13T22:38:30.523Z,75.77
2019-03-13T22:41:00.480Z,76.57
2019-03-13T22:43:30.264Z,76.60
2019-03-13T22:46:00.129Z,76.25
2019-03-13T22:48:29.952Z,76.83
2019-03-13T22:51:02.367Z,76.92
2019-03-13T22:53:31.376Z,76.92
2019-03-13T22:56:04.136Z,77.08
2019-03-13T22:58:34.299Z,76.60
2019-03-13T23:01:10.984Z,76.94
2019-03-13T23:03:41.034Z,76.81
2019-03-13T23:06:11.051Z,76.34
2019-03-13T23:08:40.967Z,76.88
2019-03-13T23:11:10.889Z,77.17
2019-03-13T23:13:40.720Z,77.25
2019-03-13T23:16:10.706Z,77.07
2019-03-13T23:18:40.519Z,77.28
2019-03-13T23:21:10.365Z,77.59
2019-03-13T23:23:40.219Z,77.41
2019-03-13T23:26:10.142Z,78.07
2019-03-13T23:28:46.540Z,77.91
2019-03-13T23:31:16.381Z,78.19
2019-03-13T23:33:46.215Z,78.09
2019-03-13T23:36:16.082Z,77.89
2019-03-13T23:38:46.281Z,77.86
2019-03-13T23:41:17.024Z,77.83
2019-03-13T23:43:46.956Z,78.16
2019-03-13T23:46:16.787Z,78.37
2019-03-13T23:48:46.600Z,78.73
2019-03-13T23:51:16.481Z,79.02
2019-03-13T23:53:46.296Z,78.89
2019-03-13T23:56:16.518Z,79.46
2019-03-13T23:58:46.370Z,79.43
